Time;durP1;ratioP1;P1;durP2;ratioP2;P2;SDS_P1;SDS_P2;PMS_P1;PMS_P2;Temp;Humidity;BMP_temperature;BMP_pressure;BME280_temperature;BME280_humidity;BME280_pressure;Samples;Min_cycle;Max_cycle;Signal;HPM_P1;HPM_P2
2022/06/21 00:02:13;;;;;;;7.20;4.07;;;11.90;99.90;;;;;;5031326;28;20489;-58
2022/06/21 00:04:40;;;;;;;7.13;4.20;;;11.90;99.90;;;;;;5033047;28;20469;-58
2022/06/21 00:07:13;;;;;;;7.40;4.90;;;11.80;99.90;;;;;;5032215;28;20517;-58
2022/06/21 00:09:40;;;;;;;8.40;5.20;;;11.80;99.90;;;;;;5032649;28;20509;-58
2022/06/21 00:12:12;;;;;;;7.03;3.90;;;11.80;99.90;;;;;;5031296;28;20488;-59
2022/06/21 00:14:40;;;;;;;7.13;4.30;;;11.80;99.90;;;;;;5033313;28;20837;-58
2022/06/21 00:17:10;;;;;;;6.40;4.10;;;11.80;99.90;;;;;;5031276;28;20840;-59
2022/06/21 00:19:38;;;;;;;6.90;4.67;;;11.80;99.90;;;;;;5031539;28;20481;-59
2022/06/21 00:22:06;;;;;;;8.73;4.33;;;11.80;99.90;;;;;;5031941;28;21059;-58
2022/06/21 00:24:34;;;;;;;6.80;4.33;;;11.80;99.90;;;;;;5032541;28;20479;-59
2022/06/21 00:27:02;;;;;;;6.43;4.90;;;11.80;99.90;;;;;;5036050;28;20543;-59
2022/06/21 00:29:31;;;;;;;13.30;5.30;;;11.70;99.90;;;;;;5035486;28;20535;-59
2022/06/21 00:31:58;;;;;;;5.93;4.43;;;11.70;99.90;;;;;;5036207;28;20535;-58
2022/06/21 00:34:25;;;;;;;8.53;4.73;;;11.70;99.90;;;;;;5035857;28;21066;-59
2022/06/21 00:36:53;;;;;;;6.97;4.60;;;11.60;99.90;;;;;;5035254;28;21047;-59
2022/06/21 00:39:20;;;;;;;8.60;5.20;;;11.60;99.90;;;;;;5036491;28;20465;-58
2022/06/21 00:41:51;;;;;;;6.40;4.97;;;11.60;99.90;;;;;;5035900;28;20484;-59
2022/06/21 00:44:24;;;;;;;7.17;4.70;;;11.60;99.90;;;;;;5035780;28;20503;-59
2022/06/21 00:46:55;;;;;;;11.10;5.40;;;11.50;99.90;;;;;;5035777;28;20648;-59
2022/06/21 00:49:27;;;;;;;8.50;5.20;;;11.50;99.90;;;;;;5036698;28;20487;-58
2022/06/21 00:52:00;;;;;;;7.70;5.73;;;11.50;99.90;;;;;;5034916;28;20485;-59
2022/06/21 00:54:34;;;;;;;8.10;5.30;;;11.50;99.90;;;;;;5036500;28;20971;-58
2022/06/21 00:57:07;;;;;;;11.63;5.37;;;11.50;99.90;;;;;;5035801;28;20452;-59
2022/06/21 00:59:35;;;;;;;12.47;5.53;;;11.50;99.90;;;;;;5032955;28;20532;-59
2022/06/21 01:02:06;;;;;;;8.50;5.10;;;11.50;99.90;;;;;;5033568;28;20996;-58
2022/06/21 01:04:37;;;;;;;6.70;4.70;;;11.40;99.90;;;;;;5035410;28;20531;-58
2022/06/21 01:07:08;;;;;;;6.30;4.40;;;11.40;99.90;;;;;;5034017;28;20482;-59
2022/06/21 01:09:39;;;;;;;7.67;5.10;;;11.40;99.90;;;;;;5035548;28;20461;-59
2022/06/21 01:12:12;;;;;;;6.73;5.23;;;11.40;99.90;;;;;;5034746;28;20481;-58
2022/06/21 01:14:43;;;;;;;9.47;5.60;;;11.30;99.90;;;;;;5035481;28;20461;-59
2022/06/21 01:17:13;;;;;;;9.03;5.27;;;11.30;99.90;;;;;;5033735;28;20489;-59
2022/06/21 01:19:44;;;;;;;11.40;6.27;;;11.30;99.90;;;;;;5021754;28;20460;-59
2022/06/21 01:22:23;;;;;;;6.70;4.93;;;11.20;99.90;;;;;;5035045;28;20481;-59
2022/06/21 01:25:03;;;;;;;7.27;5.20;;;11.20;99.90;;;;;;5035744;28;20939;-58
2022/06/21 01:27:31;;;;;;;13.57;6.40;;;11.10;99.90;;;;;;5034729;28;20460;-59
2022/06/21 01:29:59;;;;;;;12.30;6.50;;;;;;;;;;5034904;28;20453;-59
2022/06/21 01:32:26;;;;;;;11.40;7.63;;;;;;;;;;5035182;28;20538;-58
2022/06/21 01:34:55;;;;;;;8.70;5.83;;;;;;;;;;5035014;28;20484;-59
2022/06/21 01:37:25;;;;;;;12.05;6.60;;;;;;;;;;5034389;28;20465;-59
2022/06/21 01:39:55;;;;;;;7.67;6.57;;;;;;;;;;5035355;28;20797;-58
2022/06/21 01:42:27;;;;;;;9.17;6.07;;;;;;;;;;5035039;28;20493;-58
2022/06/21 01:44:59;;;;;;;6.60;5.37;;;;;;;;;;5034567;28;20850;-58
2022/06/21 01:47:27;;;;;;;8.63;5.93;;;;;;;;;;5034558;28;20514;-59
2022/06/21 01:49:57;;;;;;;9.80;6.30;;;;;;;;;;5034807;28;20465;-58
2022/06/21 01:52:26;;;;;;;10.57;6.07;;;;;;;;;;5034784;28;20488;-57
2022/06/21 01:54:56;;;;;;;9.00;5.70;;;;;;;;;;5035423;28;20226;-58
2022/06/21 01:57:25;;;;;;;9.13;5.85;;;;;;;;;;5033492;28;21024;-58
2022/06/21 01:59:53;;;;;;;9.07;5.53;;;;;;;;;;5034084;28;20206;-59
2022/06/21 02:02:24;;;;;;;11.63;6.40;;;;;;;;;;5032584;28;20485;-59
2022/06/21 02:04:54;;;;;;;6.80;5.83;;;;;;;;;;5035366;28;20598;-58
2022/06/21 02:07:23;;;;;;;8.52;5.60;;;;;;;;;;5033989;28;20544;-59
2022/06/21 02:09:55;;;;;;;6.87;4.77;;;;;;;;;;5015426;28;20235;-58
2022/06/21 02:12:23;;;;;;;13.43;5.80;;;;;;;;;;5023280;28;20485;-58
2022/06/21 02:14:52;;;;;;;11.90;6.65;;;;;;;;;;5033583;28;20336;-59
2022/06/21 02:17:22;;;;;;;11.43;6.38;;;;;;;;;;5019014;28;20276;-58
2022/06/21 02:19:54;;;;;;;6.15;5.55;;;;;;;;;;5034456;28;20644;-58
2022/06/21 02:22:23;;;;;;;11.35;5.32;;;;;;;;;;5032623;28;20214;-58
2022/06/21 02:24:52;;;;;;;7.25;5.43;;;;;;;;;;5018219;28;20723;-59
2022/06/21 02:27:20;;;;;;;6.45;5.10;;;;;;;;;;5031494;28;20210;-59
2022/06/21 02:29:49;;;;;;;10.30;4.80;;;;;;;;;;5034341;28;20268;-58
2022/06/21 02:32:19;;;;;;;9.50;5.07;;;;;;;;;;5033009;28;20288;-58
2022/06/21 02:34:48;;;;;;;10.32;5.10;;;;;;;;;;5034669;28;20206;-58
2022/06/21 02:37:17;;;;;;;8.63;5.85;;;;;;;;;;5033387;28;20276;-59
2022/06/21 02:39:46;;;;;;;12.20;5.60;;;;;;;;;;5033470;28;20229;-58
2022/06/21 02:42:15;;;;;;;9.43;5.38;;;;;;;;;;5033577;28;20230;-58
2022/06/21 02:44:44;;;;;;;8.55;5.45;;;;;;;;;;5033885;28;20244;-58
2022/06/21 02:47:14;;;;;;;8.90;6.03;;;;;;;;;;5033973;28;20579;-58
2022/06/21 02:49:45;;;;;;;8.68;5.53;;;;;;;;;;5033489;28;20203;-58
2022/06/21 02:52:14;;;;;;;10.18;5.20;;;;;;;;;;5033729;28;20224;-59
2022/06/21 02:54:49;;;;;;;9.82;5.30;;;;;;;;;;5031584;28;20305;-58
2022/06/21 02:57:18;;;;;;;8.07;5.20;;;;;;;;;;5033406;28;20281;-58
2022/06/21 02:59:47;;;;;;;9.63;5.20;;;;;;;;;;5034235;28;20214;-58
2022/06/21 03:02:16;;;;;;;12.30;4.95;;;;;;;;;;5032652;28;20231;-58
2022/06/21 03:04:48;;;;;;;8.95;4.82;;;;;;;;;;5014452;28;20269;-58
2022/06/21 03:07:18;;;;;;;14.88;5.60;;;;;;;;;;5021512;28;20542;-58
2022/06/21 03:09:47;;;;;;;9.10;6.15;;;;;;;;;;5034104;28;20202;-57
2022/06/21 03:12:17;;;;;;;8.48;5.63;;;;;;;;;;5032247;28;20242;-57
2022/06/21 03:14:46;;;;;;;9.82;5.47;;;;;;;;;;5033178;28;20203;-58
2022/06/21 03:17:15;;;;;;;11.85;5.50;;;;;;;;;;5032032;28;20293;-58
2022/06/21 03:19:46;;;;;;;8.18;5.63;;;;;;;;;;5033240;28;20635;-58
2022/06/21 03:22:16;;;;;;;6.47;5.05;;;;;;;;;;5032134;28;20273;-58
2022/06/21 03:24:44;;;;;;;11.18;6.05;;;;;;;;;;5032735;28;20294;-58
2022/06/21 03:27:17;;;;;;;9.00;5.25;;;;;;;;;;5032295;28;20611;-58
2022/06/21 03:29:44;;;;;;;12.70;6.05;;;;;;;;;;5032780;28;20551;-57
2022/06/21 03:32:12;;;;;;;9.73;5.93;;;;;;;;;;5032916;28;20274;-58
2022/06/21 03:34:40;;;;;;;9.73;5.75;;;;;;;;;;5032232;28;20214;-58
2022/06/21 03:37:07;;;;;;;11.93;6.93;;;;;;;;;;5032675;28;20202;-59
2022/06/21 03:42:22;;;;;;;7.55;5.55;;;;;;;;;;5031249;28;20475;-59
2022/06/21 03:44:53;;;;;;;8.43;5.30;;;;;;;;;;5013424;28;20631;-59
2022/06/21 03:47:23;;;;;;;12.20;5.70;;;;;;;;;;5030047;28;20666;-58
2022/06/21 03:49:54;;;;;;;15.88;5.80;;;11.00;99.90;;;;;;5033630;28;20440;-60
2022/06/21 03:55:16;;;;;;;12.97;4.80;;;11.20;99.90;;;;;;5031659;28;20502;-59
2022/06/21 03:57:52;;;;;;;5.53;3.97;;;11.80;99.90;;;;;;5031045;28;20515;-58
2022/06/21 04:00:20;;;;;;;7.00;3.53;;;12.50;99.90;;;;;;5031608;28;20433;-59
2022/06/21 04:02:55;;;;;;;7.77;3.63;;;13.20;99.90;;;;;;5032631;28;20502;-59
2022/06/21 04:05:28;;;;;;;5.00;3.50;;;13.60;99.90;;;;;;5032420;28;20513;-58
2022/06/21 04:09:59;;;;;;;9.97;4.00;;;14.30;99.90;;;;;;5099200;27;20614;-59
2022/06/21 04:12:32;;;;;;;7.17;3.53;;;14.60;99.90;;;;;;5072670;28;20498;-58
2022/06/21 04:15:08;;;;;;;4.70;2.90;;;14.90;99.90;;;;;;5090797;28;20435;-59
2022/06/21 04:17:44;;;;;;;7.17;3.57;;;15.10;99.90;;;;;;5089753;28;20874;-59
2022/06/21 04:20:18;;;;;;;7.23;3.57;;;15.20;99.90;;;;;;5090377;28;20439;-58
2022/06/21 04:22:51;;;;;;;4.13;2.83;;;15.50;99.90;;;;;;5087922;28;20467;-59
2022/06/21 04:25:30;;;;;;;7.10;3.50;;;15.70;99.70;;;;;;5089278;28;20988;-59
2022/06/21 04:28:03;;;;;;;8.50;3.20;;;16.10;98.40;;;;;;5085975;28;20472;-58
2022/06/21 04:30:35;;;;;;;8.07;3.17;;;16.30;96.90;;;;;;5072998;28;20544;-59
2022/06/21 04:33:11;;;;;;;4.20;2.67;;;16.40;96.00;;;;;;5089426;28;20466;-58
2022/06/21 04:35:43;;;;;;;5.90;2.53;;;16.40;94.70;;;;;;5087259;28;20450;-58
2022/06/21 04:38:15;;;;;;;11.43;4.00;;;16.40;94.20;;;;;;5089590;28;20454;-58
2022/06/21 04:40:48;;;;;;;5.23;3.10;;;16.30;93.70;;;;;;5089833;28;20971;-57
2022/06/21 04:43:20;;;;;;;7.63;3.70;;;16.30;93.60;;;;;;5088811;28;20912;-58
2022/06/21 04:45:51;;;;;;;5.70;2.90;;;16.50;93.40;;;;;;5069433;28;20456;-58
2022/06/21 04:48:29;;;;;;;8.63;3.67;;;16.70;92.40;;;;;;5082884;28;20468;-57
2022/06/21 04:51:03;;;;;;;9.00;3.27;;;16.80;91.50;;;;;;5089711;28;20463;-56
2022/06/21 04:53:47;;;;;;;7.47;3.20;;;16.80;91.10;;;;;;5078609;28;20456;-57
2022/06/21 04:56:26;;;;;;;14.77;3.20;;;17.00;90.50;;;;;;5082524;28;20469;-56
2022/06/21 04:58:54;;;;;;;7.20;2.73;;;17.00;89.80;;;;;;5078417;28;20463;-56
2022/06/21 05:04:09;;;;;;;4.93;2.60;;;17.10;88.10;;;;;;5088110;28;20487;-63
2022/06/21 05:06:38;;;;;;;8.53;3.20;;;17.20;88.00;;;;;;5082463;28;20830;-62
2022/06/21 05:09:05;;;;;;;7.40;2.93;;;17.30;86.90;;;;;;5088113;28;20484;-61
2022/06/21 05:11:35;;;;;;;9.93;3.90;;;17.40;85.60;;;;;;5087357;28;21000;-62
2022/06/21 05:14:03;;;;;;;12.13;3.53;;;17.60;84.30;;;;;;5070680;28;20516;-61
2022/06/21 05:16:34;;;;;;;9.40;3.93;;;17.60;83.10;;;;;;5082105;28;20552;-62
2022/06/21 05:19:09;;;;;;;13.87;4.00;;;17.60;82.70;;;;;;5078810;28;20517;-61
2022/06/21 05:21:41;;;;;;;8.63;3.47;;;17.70;80.80;;;;;;5065925;28;20508;-60
2022/06/21 05:24:11;;;;;;;9.90;2.80;;;17.60;80.70;;;;;;5065948;28;20492;-62
2022/06/21 05:26:44;;;;;;;8.30;2.70;;;17.60;79.80;;;;;;5074546;28;20464;-62
2022/06/21 05:29:17;;;;;;;7.03;2.53;;;17.40;79.70;;;;;;5042504;28;20464;-62
2022/06/21 05:31:49;;;;;;;7.17;3.00;;;17.30;81.20;;;;;;5066060;28;20456;-61
2022/06/21 05:34:20;;;;;;;9.20;3.17;;;17.40;81.00;;;;;;5073119;28;20463;-62
2022/06/21 05:37:01;;;;;;;10.10;3.07;;;17.40;80.40;;;;;;5074650;28;20548;-63
2022/06/21 05:39:32;;;;;;;7.90;3.13;;;17.50;79.90;;;;;;5035486;28;20517;-61
2022/06/21 05:42:03;;;;;;;9.40;2.93;;;17.60;79.00;;;;;;5041152;28;20536;-61
2022/06/21 05:44:35;;;;;;;6.57;2.63;;;17.50;78.80;;;;;;5055589;28;20877;-62
2022/06/21 05:47:08;;;;;;;10.23;3.70;;;17.20;78.90;;;;;;5055511;28;20467;-62
2022/06/21 05:49:37;;;;;;;7.30;2.80;;;17.00;80.00;;;;;;5074147;28;20552;-62
2022/06/21 05:52:14;;;;;;;8.53;2.63;;;17.10;81.20;;;;;;5074161;28;20545;-61
2022/06/21 05:54:46;;;;;;;8.87;3.07;;;17.20;80.50;;;;;;5074358;28;20520;-61
2022/06/21 05:57:19;;;;;;;10.10;2.83;;;17.20;79.10;;;;;;5065340;28;20454;-62
2022/06/21 05:59:46;;;;;;;7.10;3.10;;;17.10;79.60;;;;;;5040156;28;20547;-61
2022/06/21 06:02:18;;;;;;;6.30;3.30;;;16.90;80.30;;;;;;5062831;28;20488;-62
2022/06/21 06:04:52;;;;;;;5.77;2.47;;;16.90;81.50;;;;;;5073334;28;20459;-63
2022/06/21 06:07:26;;;;;;;8.37;2.90;;;16.90;81.70;;;;;;5063080;28;20466;-61
2022/06/21 06:09:57;;;;;;;5.20;2.90;;;16.90;81.20;;;;;;5055179;28;21037;-61
2022/06/21 06:12:29;;;;;;;8.53;3.90;;;16.80;81.20;;;;;;5054056;28;21066;-62
2022/06/21 06:15:02;;;;;;;6.63;2.90;;;16.80;82.30;;;;;;5054998;28;21018;-62
2022/06/21 06:17:39;;;;;;;9.23;3.40;;;16.80;83.30;;;;;;5053923;28;20943;-61
2022/06/21 06:20:14;;;;;;;10.97;3.10;;;16.80;83.20;;;;;;5068442;28;20466;-62
2022/06/21 06:22:46;;;;;;;8.90;2.70;;;16.70;83.80;;;;;;5059784;28;20491;-62
2022/06/21 06:25:18;;;;;;;10.50;3.50;;;16.80;83.50;;;;;;5064537;28;20470;-60
2022/06/21 06:27:54;;;;;;;7.80;4.37;;;16.60;83.30;;;;;;5073541;28;20459;-61
2022/06/21 06:30:28;;;;;;;10.97;2.87;;;16.40;84.50;;;;;;5074871;28;20460;-61
2022/06/21 06:33:04;;;;;;;10.00;3.23;;;16.30;84.80;;;;;;5060464;28;21071;-62
2022/06/21 06:35:31;;;;;;;10.00;3.40;;;16.30;85.10;;;;;;5069017;28;21025;-62
2022/06/21 06:37:58;;;;;;;8.17;3.20;;;16.30;86.00;;;;;;5067067;28;20498;-62
2022/06/21 06:40:30;;;;;;;10.97;3.13;;;16.60;85.50;;;;;;5056915;28;20518;-62
2022/06/21 06:43:04;;;;;;;8.97;3.50;;;16.70;84.30;;;;;;5067146;28;20508;-60
2022/06/21 06:45:35;;;;;;;8.83;3.47;;;16.70;83.40;;;;;;5057707;28;20460;-62
2022/06/21 06:48:07;;;;;;;9.63;4.20;;;16.40;83.90;;;;;;5053941;28;20498;-62
2022/06/21 06:50:38;;;;;;;12.07;3.70;;;16.30;85.20;;;;;;5053353;28;20930;-62
2022/06/21 06:53:12;;;;;;;11.47;3.67;;;16.40;85.50;;;;;;5052751;28;20962;-61
2022/06/21 06:55:43;;;;;;;7.63;3.50;;;16.60;85.30;;;;;;5053978;28;20850;-59
2022/06/21 06:58:22;;;;;;;9.50;3.20;;;16.70;84.10;;;;;;5054783;28;20849;-61
2022/06/21 07:00:54;;;;;;;6.53;3.43;;;16.60;83.20;;;;;;5053298;28;20526;-61
2022/06/21 07:03:25;;;;;;;11.93;3.70;;;16.50;83.50;;;;;;5064066;28;20582;-60
2022/06/21 07:05:57;;;;;;;9.83;2.97;;;16.40;83.80;;;;;;5054906;28;20476;-60
2022/06/21 07:08:32;;;;;;;11.33;2.90;;;16.40;84.40;;;;;;5058381;28;20829;-60
2022/06/21 07:11:02;;;;;;;4.87;2.53;;;16.50;85.20;;;;;;5053921;28;20513;-66
2022/06/21 07:13:33;;;;;;;6.27;2.40;;;16.80;83.20;;;;;;5054375;28;20498;-58
2022/06/21 07:16:04;;;;;;;9.07;2.80;;;16.80;82.40;;;;;;5055653;28;20660;-60
2022/06/21 07:18:35;;;;;;;12.00;2.90;;;16.60;82.20;;;;;;5063439;28;20455;-60
2022/06/21 07:21:03;;;;;;;8.73;2.50;;;16.60;83.00;;;;;;5053176;28;20426;-59
2022/06/21 07:23:30;;;;;;;9.07;2.50;;;16.80;83.10;;;;;;5068054;28;20922;-58
2022/06/21 07:26:01;;;;;;;11.33;2.90;;;17.00;81.40;;;;;;5069693;28;20445;-58
2022/06/21 07:28:35;;;;;;;9.17;3.60;;;17.10;80.30;;;;;;5053293;28;20434;-59
2022/06/21 07:31:09;;;;;;;5.90;2.00;;;17.00;80.10;;;;;;5053406;28;20552;-59
2022/06/21 07:33:42;;;;;;;6.77;2.97;;;17.00;79.90;;;;;;5053266;28;20896;-60
2022/06/21 07:36:13;;;;;;;8.60;2.53;;;17.20;78.50;;;;;;5052678;28;20479;-61
2022/06/21 07:38:47;;;;;;;6.77;2.50;;;17.50;76.60;;;;;;5073089;28;20869;-61
2022/06/21 07:41:19;;;;;;;5.77;2.50;;;17.70;74.40;;;;;;5055484;28;20442;-60
2022/06/21 07:43:51;;;;;;;7.83;2.90;;;17.90;72.30;;;;;;5053478;28;20471;-59
2022/06/21 07:46:23;;;;;;;8.40;2.50;;;18.10;71.50;;;;;;5051592;28;20910;-60
2022/06/21 07:48:56;;;;;;;5.93;2.30;;;18.10;68.50;;;;;;5051755;28;20194;-60
2022/06/21 07:51:27;;;;;;;7.07;2.90;;;17.80;67.80;;;;;;5072613;28;20464;-60
2022/06/21 07:54:00;;;;;;;6.60;2.30;;;17.70;68.30;;;;;;5072454;28;20566;-59
2022/06/21 07:56:33;;;;;;;4.33;2.30;;;17.60;68.30;;;;;;5058559;28;20467;-60
2022/06/21 07:59:05;;;;;;;6.00;2.77;;;17.80;68.50;;;;;;5052717;28;20558;-60
2022/06/21 08:07:18;;;;;;;9.00;2.23;;;18.10;66.10;;;;;;5052742;28;20400;-60
2022/06/21 08:09:51;;;;;;;6.00;2.07;;;17.90;66.80;;;;;;5051692;28;20486;-60
2022/06/21 08:12:19;;;;;;;6.27;2.30;;;17.70;67.40;;;;;;5052294;28;20978;-60
2022/06/21 08:14:48;;;;;;;6.47;2.80;;;17.70;67.50;;;;;;5052338;28;20558;-59
2022/06/21 08:17:24;;;;;;;6.37;2.13;;;17.80;68.10;;;;;;5052357;28;20509;-60
2022/06/21 08:20:00;;;;;;;5.67;2.40;;;18.00;67.30;;;;;;5050092;28;20455;-61
2022/06/21 08:22:33;;;;;;;5.20;3.13;;;18.20;64.90;;;;;;5051726;28;20529;-62
2022/06/21 08:25:08;;;;;;;6.93;1.77;;;18.30;64.10;;;;;;5053052;28;20424;-60
2022/06/21 08:27:42;;;;;;;6.50;1.90;;;18.40;63.20;;;;;;5052418;28;20437;-61
2022/06/21 08:30:15;;;;;;;7.17;2.40;;;18.50;63.10;;;;;;5051428;28;20484;-61
2022/06/21 08:32:51;;;;;;;9.07;2.50;;;18.60;62.50;;;;;;5052549;28;20464;-62
2022/06/21 08:35:23;;;;;;;4.03;2.03;;;18.70;62.20;;;;;;5052497;28;20523;-60
2022/06/21 08:37:56;;;;;;;4.27;1.70;;;18.60;62.00;;;;;;5067306;28;20878;-62
2022/06/21 08:40:56;;;;;;;7.40;2.07;;;18.60;62.20;;;;;;5059092;28;20482;-62
2022/06/21 08:43:58;;;;;;;6.10;1.67;;;18.50;62.20;;;;;;5070765;28;20479;-61
2022/06/21 08:47:20;;;;;;;5.43;2.07;;;18.40;62.00;;;;;;5072773;28;20442;-61
2022/06/21 08:50:24;;;;;;;3.90;2.03;;;18.40;61.20;;;;;;5015162;28;20849;-60
2022/06/21 08:53:03;;;;;;;8.30;2.57;;;18.50;60.80;;;;;;5052815;28;20496;-60
2022/06/21 08:55:39;;;;;;;6.43;1.97;;;18.60;60.80;;;;;;5054124;28;20449;-60
2022/06/21 08:58:22;;;;;;;7.23;2.53;;;18.60;60.30;;;;;;5057103;28;20432;-61
2022/06/21 09:00:53;;;;;;;8.37;2.07;;;18.60;60.20;;;;;;5057140;28;20451;-61
2022/06/21 09:03:37;;;;;;;6.30;1.70;;;18.60;59.80;;;;;;5055610;28;20499;-61
2022/06/21 09:06:15;;;;;;;6.67;2.10;;;18.70;59.50;;;;;;5052473;28;20440;-62
2022/06/21 09:09:18;;;;;;;6.67;1.83;;;18.70;59.40;;;;;;5054445;28;20456;-62
2022/06/21 09:11:55;;;;;;;4.57;1.70;;;18.70;58.90;;;;;;5029864;28;20475;-62
2022/06/21 09:14:48;;;;;;;7.70;2.20;;;18.70;58.10;;;;;;5054616;28;20522;-65
2022/06/21 09:17:25;;;;;;;6.47;2.23;;;18.80;57.80;;;;;;5034152;28;20481;-61
2022/06/21 09:20:08;;;;;;;5.07;1.63;;;18.80;57.70;;;;;;5033475;28;20458;-61
2022/06/21 09:22:49;;;;;;;3.30;1.63;;;18.80;57.80;;;;;;5034401;28;20503;-61
2022/06/21 09:25:23;;;;;;;6.37;2.13;;;19.00;58.00;;;;;;5041373;28;20435;-61
2022/06/21 09:27:52;;;;;;;4.70;1.90;;;19.10;57.60;;;;;;5047157;28;20505;-61
2022/06/21 09:30:25;;;;;;;5.63;2.30;;;19.10;57.30;;;;;;5055613;28;20501;-62
2022/06/21 09:33:00;;;;;;;5.00;2.13;;;19.20;57.50;;;;;;5056084;28;20469;-59
2022/06/21 09:35:41;;;;;;;6.37;1.80;;;19.30;57.50;;;;;;5056252;28;20495;-60
2022/06/21 09:38:39;;;;;;;7.10;2.23;;;19.50;57.10;;;;;;5056418;28;20440;-60
2022/06/21 09:41:14;;;;;;;6.00;1.87;;;19.70;56.50;;;;;;5053210;28;20448;-63
2022/06/21 09:44:03;;;;;;;5.17;2.23;;;19.80;56.00;;;;;;5055023;28;20464;-64
2022/06/21 09:46:41;;;;;;;8.30;2.57;;;19.90;55.50;;;;;;5056834;28;20458;-65
2022/06/21 09:49:20;;;;;;;8.10;2.00;;;19.90;55.10;;;;;;5058488;28;20441;-64
2022/06/21 09:51:55;;;;;;;5.73;2.33;;;19.90;55.10;;;;;;5057809;28;20428;-64
2022/06/21 09:54:34;;;;;;;2.77;1.80;;;20.00;55.10;;;;;;5059993;28;21006;-63
2022/06/21 09:57:14;;;;;;;9.30;2.47;;;20.10;54.60;;;;;;5077761;28;20522;-64
2022/06/21 09:59:47;;;;;;;6.23;2.40;;;20.10;54.60;;;;;;5061262;28;21110;-63
2022/06/21 10:02:23;;;;;;;7.27;2.13;;;20.20;54.60;;;;;;5056265;28;20467;-64
2022/06/21 10:04:59;;;;;;;5.53;2.30;;;20.50;54.10;;;;;;5056878;28;20454;-64
2022/06/21 10:07:45;;;;;;;4.90;1.90;;;20.70;52.80;;;;;;5056624;28;20460;-64
2022/06/21 10:10:27;;;;;;;4.87;2.97;;;20.60;52.70;;;;;;5058399;28;20555;-64
2022/06/21 10:13:05;;;;;;;5.03;2.47;;;20.70;52.70;;;;;;5055024;28;20470;-62
2022/06/21 10:15:46;;;;;;;3.80;2.10;;;20.70;52.10;;;;;;5068839;28;20462;-64
2022/06/21 10:18:38;;;;;;;7.00;2.40;;;20.70;51.80;;;;;;5073583;28;20921;-64
2022/06/21 10:21:29;;;;;;;5.60;1.97;;;20.90;51.60;;;;;;5048236;28;20453;-64
2022/06/21 10:24:17;;;;;;;5.77;1.60;;;20.90;51.40;;;;;;5027856;28;20512;-64
2022/06/21 10:27:03;;;;;;;2.90;1.60;;;20.90;50.70;;;;;;5035146;28;20472;-64
2022/06/21 10:29:51;;;;;;;3.73;1.93;;;20.80;50.50;;;;;;5051062;28;20457;-65
2022/06/21 10:32:35;;;;;;;2.73;1.60;;;20.80;49.90;;;;;;5051980;28;20510;-64
2022/06/21 10:35:30;;;;;;;5.10;1.60;;;20.90;49.10;;;;;;5061336;28;20488;-65
2022/06/21 10:38:20;;;;;;;3.93;1.90;;;20.80;48.20;;;;;;5064044;28;20545;-64
2022/06/21 10:41:05;;;;;;;3.63;1.90;;;20.70;48.20;;;;;;5053518;28;20459;-64
2022/06/21 10:43:53;;;;;;;4.50;2.07;;;20.70;48.20;;;;;;5053800;28;20524;-63
2022/06/21 10:46:33;;;;;;;5.03;1.60;;;20.80;48.30;;;;;;5052867;28;20943;-65
2022/06/21 10:49:26;;;;;;;3.50;1.83;;;21.00;47.90;;;;;;5052236;28;20428;-64
2022/06/21 10:52:28;;;;;;;7.07;1.60;;;21.00;47.30;;;;;;5054069;28;21079;-63
2022/06/21 10:55:16;;;;;;;2.30;1.50;;;20.90;47.30;;;;;;5048458;28;20484;-62
2022/06/21 10:57:55;;;;;;;4.73;2.00;;;21.10;47.30;;;;;;5043256;28;20441;-61
2022/06/21 11:03:45;;;;;;;3.50;1.70;;;21.30;46.70;;;;;;5096551;22;21101;-62
2022/06/21 11:06:24;;;;;;;5.00;2.10;;;21.40;46.50;;;;;;5092250;28;20453;-62
2022/06/21 11:09:02;;;;;;;3.77;2.00;;;21.40;46.60;;;;;;5093965;28;20462;-61
2022/06/21 11:11:39;;;;;;;3.80;1.83;;;21.40;46.70;;;;;;5091612;28;20995;-62
2022/06/21 11:14:15;;;;;;;4.30;2.00;;;21.50;46.90;;;;;;5077377;28;20468;-62
2022/06/21 11:16:55;;;;;;;6.47;2.30;;;21.50;47.00;;;;;;5073866;28;20439;-63
2022/06/21 11:19:46;;;;;;;4.10;1.63;;;21.60;47.10;;;;;;5071424;28;20881;-63
2022/06/21 11:22:29;;;;;;;3.80;1.83;;;21.70;46.60;;;;;;5053463;28;20473;-63
2022/06/21 11:25:15;;;;;;;6.17;2.60;;;21.90;46.10;;;;;;5052935;28;20428;-63
2022/06/21 11:27:52;;;;;;;5.40;2.70;;;22.10;45.70;;;;;;5054476;28;20421;-62
2022/06/21 11:30:26;;;;;;;4.97;2.30;;;22.10;45.70;;;;;;5072641;28;20555;-63
2022/06/21 11:33:03;;;;;;;3.47;1.67;;;22.30;45.60;;;;;;5071730;28;20488;-61
2022/06/21 11:35:42;;;;;;;7.00;2.03;;;22.50;45.30;;;;;;5072906;28;20442;-62
2022/06/21 11:38:23;;;;;;;3.63;1.80;;;22.60;44.80;;;;;;5072296;28;20500;-62
2022/06/21 11:40:58;;;;;;;6.00;1.47;;;22.70;44.40;;;;;;5052926;28;20431;-61
2022/06/21 11:43:41;;;;;;;2.93;1.73;;;22.80;43.60;;;;;;5055238;28;20455;-62
2022/06/21 11:46:19;;;;;;;3.10;1.70;;;22.90;43.30;;;;;;5072186;28;20434;-62
2022/06/21 11:49:15;;;;;;;6.40;2.63;;;23.20;43.10;;;;;;5072700;28;20431;-63
2022/06/21 11:52:28;;;;;;;6.63;2.10;;;23.50;42.50;;;;;;5073294;28;20520;-62
2022/06/21 11:55:03;;;;;;;2.70;1.37;;;23.80;42.00;;;;;;5071960;28;20466;-64
2022/06/21 11:57:39;;;;;;;5.80;1.87;;;24.10;41.40;;;;;;5073466;28;20429;-63
2022/06/21 12:00:12;;;;;;;3.40;1.73;;;24.40;40.40;;;;;;5072078;28;20462;-64
2022/06/21 12:02:47;;;;;;;9.03;3.33;;;24.60;39.60;;;;;;5070490;28;20494;-65
2022/06/21 12:05:24;;;;;;;7.60;2.77;;;24.90;39.40;;;;;;5073272;28;20430;-65
2022/06/21 12:08:00;;;;;;;3.50;1.60;;;25.50;39.00;;;;;;5071285;28;20462;-65
2022/06/21 12:10:41;;;;;;;4.00;1.50;;;26.20;38.10;;;;;;5073483;28;20532;-65
2022/06/21 12:13:19;;;;;;;6.27;1.90;;;26.70;37.00;;;;;;5072202;28;20543;-65
2022/06/21 12:15:57;;;;;;;3.90;1.50;;;26.90;36.20;;;;;;5074361;28;20427;-65
2022/06/21 12:18:28;;;;;;;2.47;1.40;;;26.90;35.80;;;;;;5074422;28;20976;-66
2022/06/21 12:20:59;;;;;;;3.13;1.23;;;26.80;35.50;;;;;;5074163;28;20861;-65
2022/06/21 12:23:33;;;;;;;7.83;1.90;;;26.90;35.20;;;;;;5074533;28;20459;-65
2022/06/21 12:26:00;;;;;;;2.73;1.73;;;27.10;34.80;;;;;;5073164;28;20442;-65
2022/06/21 12:28:31;;;;;;;3.07;1.30;;;27.30;34.50;;;;;;5073090;28;20864;-63
2022/06/21 12:31:01;;;;;;;3.23;2.03;;;27.60;34.20;;;;;;5075585;28;20463;-63
2022/06/21 12:33:33;;;;;;;2.87;1.10;;;27.70;33.80;;;;;;5077159;28;20470;-64
2022/06/21 12:36:25;;;;;;;5.53;1.90;;;27.90;33.40;;;;;;5076073;28;20435;-65
2022/06/21 12:38:59;;;;;;;1.90;1.40;;;28.10;32.90;;;;;;5076775;28;20427;-64
2022/06/21 12:41:47;;;;;;;2.13;1.30;;;28.10;32.50;;;;;;5076923;28;20457;-65
2022/06/21 12:44:27;;;;;;;4.00;1.47;;;27.70;32.70;;;;;;5077071;28;20815;-64
2022/06/21 12:47:04;;;;;;;2.70;1.67;;;27.30;33.10;;;;;;5077241;28;20439;-65
2022/06/21 12:49:59;;;;;;;2.70;1.27;;;27.10;33.40;;;;;;5076888;28;20467;-65
2022/06/21 12:52:32;;;;;;;3.40;1.60;;;26.90;33.50;;;;;;5076162;28;20540;-64
2022/06/21 12:55:08;;;;;;;2.70;1.40;;;26.60;33.70;;;;;;5076614;28;20523;-65
2022/06/21 12:57:55;;;;;;;2.87;1.83;;;26.10;34.40;;;;;;5077780;28;20435;-66
2022/06/21 13:00:38;;;;;;;2.70;1.43;;;25.80;35.00;;;;;;5075344;28;20490;-64
2022/06/21 13:03:45;;;;;;;3.13;1.30;;;25.50;34.80;;;;;;5084034;28;21055;-64
2022/06/21 13:06:37;;;;;;;6.53;1.60;;;25.20;35.30;;;;;;5080325;28;20419;-65
2022/06/21 13:09:41;;;;;;;3.13;1.60;;;25.00;35.80;;;;;;5077334;28;20938;-64
2022/06/21 13:12:43;;;;;;;2.87;1.60;;;24.90;35.90;;;;;;5077782;28;20509;-64
2022/06/21 13:15:29;;;;;;;4.60;2.70;;;24.70;35.80;;;;;;5076484;28;20431;-65
2022/06/21 13:18:17;;;;;;;1.40;1.30;;;24.70;35.90;;;;;;5076786;28;20488;-65
2022/06/21 13:20:57;;;;;;;2.03;1.00;;;24.60;35.60;;;;;;5077237;28;20966;-64
2022/06/21 13:23:39;;;;;;;1.60;1.10;;;24.60;35.20;;;;;;5077172;28;20504;-65
2022/06/21 13:26:16;;;;;;;2.93;1.40;;;24.60;34.80;;;;;;5077794;28;20515;-65
2022/06/21 13:29:00;;;;;;;3.27;1.50;;;24.40;34.50;;;;;;5076883;28;20907;-65
2022/06/21 13:31:34;;;;;;;3.43;1.70;;;24.40;34.70;;;;;;5076600;28;20910;-64
2022/06/21 13:34:06;;;;;;;1.93;1.40;;;24.40;34.50;;;;;;5077114;28;20467;-64
2022/06/21 13:36:39;;;;;;;2.83;1.30;;;24.40;34.60;;;;;;5076065;28;20427;-65
2022/06/21 13:39:21;;;;;;;4.43;1.70;;;24.50;34.70;;;;;;5075967;28;20431;-65
2022/06/21 13:44:44;;;;;;;2.10;1.20;;;24.90;34.60;;;;;;5076202;28;20422;-66
2022/06/21 13:47:15;;;;;;;3.40;1.60;;;25.20;34.80;;;;;;5075990;28;20484;-65
2022/06/21 13:49:47;;;;;;;5.10;1.77;;;25.30;35.00;;;;;;5075951;28;20496;-64
2022/06/21 13:52:21;;;;;;;3.00;1.30;;;25.40;35.10;;;;;;5075998;28;20474;-65
2022/06/21 13:54:52;;;;;;;3.13;1.40;;;25.40;35.20;;;;;;5075599;28;20903;-64
2022/06/21 13:57:44;;;;;;;5.13;1.80;;;25.50;35.40;;;;;;5075607;28;20431;-65
2022/06/21 14:00:17;;;;;;;3.33;1.40;;;25.60;35.50;;;;;;5075660;28;20443;-66
2022/06/21 14:02:52;;;;;;;6.20;1.37;;;25.90;35.10;;;;;;5075731;28;20566;-64
2022/06/21 14:05:27;;;;;;;2.80;1.27;;;25.90;34.90;;;;;;5075331;28;20426;-64
2022/06/21 14:08:02;;;;;;;3.10;1.40;;;25.90;34.80;;;;;;5075535;28;20639;-66